Aldine, Texas
Current Conditions -  °F | °C
As of 2:53 PM on Friday 31 Oct 2014 (Local Time) from KIAH Reporting Station
Few Clouds Few Clouds  
Wind Chill: 79°   Ceiling: Unl
Heat Index: 79°   Visibility: 10mi
Dew Point: 43°   Wind: 14mph
Humidity: 28%   Direction: 350°N
Pressure: 30.15"   Gusts: NA
Location:  29.93°N, 95.38°W
Report Text: KIAH 311953Z 35012KT 10SM FEW250 26/06 A3015 RMK AO2 SLP210 T02610061
Loading
Personal Weather Stations






























Interactive Weather Map
Tropical Storm Tracking
New forecast layout! Learn more

10-Day Weather Forecast

Advertisements
Track Severe Weather on mobile